Aérodrome :
LOGIN :

S'inscrire | Disclaimer

   EN    FR    IT 

 










Légende :    VFR   VFR Marginal   IFR   IFR Intensif   IFR Très Intensif
Visi : 
Plafond : 
>= 8 km
>= 3000ft
5 à 8 km
1000 à 3000 ft
1500m à 5 km
500 à 1000 ft
800 à 1500m
200 à 500 ft
< 800m
< 200 ft
Symboles :   Orages  Brouillard  Fortes neiges  Fortes précipitations  Vent > 20 kt
SIGMETs :   Divers  Orages  Givrage  Turbulence  Onde Orograph.  Cendres Volcan.







- Altitude de l'aérodrome : 13 ft
- Code IATA : LYX
- Voir les cartes d'approche


EGMD - Lydd

DERNIER METAR :
  • 182220Z AUTO 07002KT 9999 NCD 14/13 Q1019

METARs EXPIRÉS :
  • 182150Z AUTO 10002KT 9999 NCD 14/14 Q1019
  • 182120Z AUTO 07003KT 9999 NCD 14/13 Q1019
  • 182050Z AUTO 00000KT 9999 NCD 16/14 Q1019
  • 182020Z AUTO 20003KT 9999 NCD 18/15 Q1019
  • 181950Z AUTO 21004KT 9999 NCD 18/15 Q1019
  • 181920Z AUTO 21004KT 9999 NCD 20/14 Q1019

TAF TAF EGMD
Valide du 18 à 21h jusqu'au 19 à 06h UTC


181957Z 1821/1906 18003KT 9999 FEW035
PROB40 1823/1906 4000 BR
BECMG 1903/1906 06010KT
ATIS : +44 1797 322 422
Pas de NOTAMs connus pour ce terrain.



MET'MAP, la Météo Aéronautique d'un coup d'oeil ! - Copyright ORBIFLY Décembre 2007 - Disclaimer

ORBIFLY MET'MAP TEAM :

Programmation & Développement : Alexandra Zaïnal
Conception & Développement : Baudouin d'Aumeries
Co-Programmation & Développement : Marc-Olivier Méhu
Soutien technique & logistique : Manuel Goepfert

Contact : metmap@orbifly.com




SOURCES & CREDITS :

   NOAA